createdAt,value
2017-09-09T00:00:56.644Z,90.23
2017-09-09T00:01:56.668Z,90.23
2017-09-09T00:03:51.117Z,90.91
2017-09-09T00:04:51.149Z,90.81
2017-09-09T00:06:45.637Z,91.19
2017-09-09T00:07:45.645Z,91.29
2017-09-09T00:09:40.125Z,91.29
2017-09-09T00:10:40.149Z,91.00
2017-09-09T00:12:34.664Z,91.29
2017-09-09T00:13:43.340Z,91.10
2017-09-09T00:15:29.125Z,91.19
2017-09-09T00:16:29.165Z,91.19
2017-09-09T00:18:23.637Z,91.39
2017-09-09T00:19:23.653Z,91.77
2017-09-09T00:21:18.101Z,91.96
2017-09-09T00:22:18.445Z,91.96
2017-09-09T00:24:12.630Z,91.96
2017-09-09T00:25:12.805Z,91.77
2017-09-09T00:27:07.125Z,91.39
2017-09-09T00:28:07.142Z,91.49
2017-09-09T00:30:01.598Z,91.77
2017-09-09T00:31:01.637Z,91.86
2017-09-09T00:32:55.166Z,91.58
2017-09-09T00:33:55.125Z,91.49
2017-09-09T00:35:49.606Z,91.58
2017-09-09T00:36:49.670Z,91.39
2017-09-09T00:38:44.113Z,91.96
2017-09-09T00:39:44.161Z,91.58
2017-09-09T00:41:38.601Z,92.35
2017-09-09T00:42:38.642Z,92.25
2017-09-09T00:44:33.121Z,91.67
2017-09-09T00:45:33.140Z,91.77
2017-09-09T00:47:27.620Z,91.77
2017-09-09T00:48:27.625Z,91.58
2017-09-09T00:50:22.097Z,91.58
2017-09-09T00:51:22.121Z,91.39
2017-09-09T00:53:16.610Z,91.77
2017-09-09T00:54:16.610Z,91.77
2017-09-09T00:56:11.066Z,91.49
2017-09-09T00:57:11.106Z,91.58
2017-09-09T00:59:05.586Z,91.49
2017-09-09T01:00:05.593Z,91.67
2017-09-09T01:02:00.081Z,91.67
2017-09-09T01:03:00.114Z,91.39
2017-09-09T01:04:54.602Z,91.19
2017-09-09T01:05:54.602Z,91.96
2017-09-09T01:07:49.066Z,91.58
2017-09-09T01:08:49.090Z,91.39
2017-09-09T01:10:43.538Z,91.39
2017-09-09T01:11:43.578Z,91.77
2017-09-09T01:13:38.074Z,91.58
2017-09-09T01:14:38.068Z,92.15
2017-09-09T01:16:32.547Z,91.58
2017-09-09T01:17:32.595Z,92.25
2017-09-09T01:19:27.053Z,91.96
2017-09-09T01:20:27.059Z,91.67
2017-09-09T01:22:20.515Z,92.35
2017-09-09T01:23:20.562Z,92.01
2017-09-09T01:25:15.037Z,91.86
2017-09-09T01:26:15.043Z,92.06
2017-09-09T01:28:09.499Z,91.96
2017-09-09T01:29:09.547Z,92.15
2017-09-09T01:31:04.019Z,92.15
2017-09-09T01:32:04.035Z,91.77
2017-09-09T01:33:58.531Z,92.25
2017-09-09T01:34:58.546Z,91.67
2017-09-09T01:36:53.034Z,92.06
2017-09-09T01:37:53.066Z,91.82
2017-09-09T01:39:47.539Z,92.35
2017-09-09T01:40:47.539Z,91.96
2017-09-09T01:42:42.043Z,91.96
2017-09-09T01:43:42.050Z,92.35
2017-09-09T01:45:36.531Z,91.77
2017-09-09T01:46:36.571Z,91.77
2017-09-09T01:48:31.003Z,92.15
2017-09-09T01:49:31.030Z,91.67
2017-09-09T01:51:26.419Z,92.15
2017-09-09T01:52:35.019Z,92.01
2017-09-09T01:54:20.827Z,91.72
2017-09-09T01:55:20.851Z,91.34
2017-09-09T01:57:15.323Z,91.92
2017-09-09T01:58:15.339Z,92.30
2017-09-09T02:00:08.803Z,92.21
2017-09-09T02:01:08.844Z,92.11
2017-09-09T02:03:03.332Z,91.63
2017-09-09T02:04:03.347Z,92.30
2017-09-09T02:05:57.819Z,92.30
2017-09-09T02:06:57.843Z,91.63
2017-09-09T02:08:52.315Z,91.53
2017-09-09T02:09:52.332Z,91.53
2017-09-09T02:11:46.788Z,91.53
2017-09-09T02:12:46.820Z,91.63
2017-09-09T02:14:41.308Z,91.53
2017-09-09T02:15:41.324Z,91.44
2017-09-09T02:17:35.772Z,91.63
2017-09-09T02:18:35.828Z,91.53
2017-09-09T02:20:30.348Z,91.82
2017-09-09T02:21:30.325Z,91.34
2017-09-09T02:23:24.756Z,91.15
2017-09-09T02:24:24.804Z,91.15
2017-09-09T02:26:19.284Z,91.44
2017-09-09T02:27:19.300Z,91.25
2017-09-09T02:29:13.789Z,91.25
2017-09-09T02:30:13.788Z,91.34
2017-09-09T02:32:08.245Z,91.15
2017-09-09T02:33:08.293Z,90.77
2017-09-09T02:35:02.781Z,91.25
2017-09-09T02:36:02.772Z,91.15
2017-09-09T02:37:57.245Z,90.77
2017-09-09T02:38:57.269Z,91.25
2017-09-09T02:40:51.740Z,90.77
2017-09-09T02:41:51.757Z,90.86
2017-09-09T02:43:46.261Z,91.11
2017-09-09T02:44:46.272Z,91.15
2017-09-09T02:46:40.709Z,91.25
2017-09-09T02:47:40.773Z,91.05
2017-09-09T02:49:34.236Z,91.15
2017-09-09T02:50:34.246Z,91.25
2017-09-09T02:52:28.703Z,91.25
2017-09-09T02:53:28.741Z,91.15
2017-09-09T02:55:23.237Z,91.05
2017-09-09T02:56:23.254Z,90.96
2017-09-09T02:58:17.742Z,91.11
2017-09-09T02:59:17.757Z,91.30
2017-09-09T03:01:12.246Z,91.58
2017-09-09T03:02:12.256Z,91.34
2017-09-09T03:04:06.726Z,91.20
2017-09-09T03:05:06.758Z,91.72
2017-09-09T03:07:01.214Z,91.34
2017-09-09T03:08:01.254Z,91.20
2017-09-09T03:09:55.734Z,90.96
2017-09-09T03:10:55.743Z,91.30
2017-09-09T03:12:49.182Z,91.11
2017-09-09T03:13:49.230Z,90.91
2017-09-09T03:15:43.727Z,91.11
2017-09-09T03:16:43.719Z,90.72
2017-09-09T03:18:38.174Z,91.01
2017-09-09T03:19:38.214Z,91.20
2017-09-09T03:21:32.686Z,91.20
2017-09-09T03:22:32.694Z,91.11
2017-09-09T03:24:27.193Z,91.15
2017-09-09T03:25:27.183Z,91.34
2017-09-09T03:27:21.662Z,91.01
2017-09-09T03:28:21.747Z,90.72
2017-09-09T03:30:16.167Z,91.15
2017-09-09T03:31:16.192Z,91.01
2017-09-09T03:33:10.688Z,90.91
2017-09-09T03:34:10.687Z,91.11
2017-09-09T03:36:04.143Z,90.82
2017-09-09T03:37:04.167Z,90.53
2017-09-09T03:38:58.663Z,90.82
2017-09-09T03:39:58.679Z,91.20
2017-09-09T03:41:53.135Z,91.01
2017-09-09T03:42:53.168Z,90.91
2017-09-09T03:44:47.688Z,90.72
2017-09-09T03:45:47.668Z,90.91
2017-09-09T03:47:42.121Z,90.72
2017-09-09T03:48:42.168Z,90.53
2017-09-09T03:50:35.640Z,90.44
2017-09-09T03:51:35.651Z,90.72
2017-09-09T03:53:30.120Z,91.01
2017-09-09T03:54:30.140Z,90.44
2017-09-09T03:56:24.585Z,90.82
2017-09-09T03:57:24.625Z,90.72
2017-09-09T03:59:19.112Z,90.91
2017-09-09T04:00:19.112Z,91.01
2017-09-09T04:02:13.577Z,90.72
2017-09-09T04:03:13.616Z,90.82
2017-09-09T04:05:08.112Z,90.82
2017-09-09T04:06:08.105Z,91.11
2017-09-09T04:08:02.593Z,90.82
2017-09-09T04:09:02.609Z,91.11
2017-09-09T04:10:56.065Z,91.30
2017-09-09T04:11:56.109Z,90.72
2017-09-09T04:13:50.617Z,90.82
2017-09-09T04:14:50.601Z,90.72
2017-09-09T04:16:45.066Z,90.91
2017-09-09T04:17:45.113Z,91.20
2017-09-09T04:19:39.577Z,91.01
2017-09-09T04:20:39.593Z,91.11
2017-09-09T04:22:33.073Z,91.30
2017-09-09T04:23:33.073Z,91.30
2017-09-09T04:25:27.529Z,91.20
2017-09-09T04:26:27.586Z,90.91
2017-09-09T04:28:22.074Z,91.11
2017-09-09T04:29:22.074Z,91.11
2017-09-09T04:31:16.521Z,91.30
2017-09-09T04:32:16.570Z,91.11
2017-09-09T04:34:11.058Z,90.53
2017-09-09T04:35:11.082Z,91.20
2017-09-09T04:37:05.514Z,90.24
2017-09-09T04:38:05.567Z,90.44
2017-09-09T04:40:00.026Z,90.91
2017-09-09T04:41:00.061Z,90.53
2017-09-09T04:42:54.516Z,90.44
2017-09-09T04:43:54.548Z,90.44
2017-09-09T04:45:49.012Z,90.82
2017-09-09T04:46:49.052Z,90.44
2017-09-09T04:48:43.501Z,90.53
2017-09-09T04:49:43.524Z,90.34
2017-09-09T04:51:37.988Z,90.72
2017-09-09T04:52:38.036Z,90.91
2017-09-09T04:54:32.500Z,91.01
2017-09-09T04:55:32.517Z,90.63
2017-09-09T04:57:26.997Z,90.53
2017-09-09T04:58:27.013Z,90.34
2017-09-09T05:00:21.501Z,90.82
2017-09-09T05:01:21.501Z,90.53
2017-09-09T05:03:15.957Z,90.53
2017-09-09T05:04:15.989Z,90.44
2017-09-09T05:06:10.477Z,90.87
2017-09-09T05:07:10.485Z,90.48
2017-09-09T05:09:03.933Z,90.87
2017-09-09T05:10:03.965Z,90.72
2017-09-09T05:11:58.454Z,90.72
2017-09-09T05:12:58.477Z,90.82
2017-09-09T05:14:52.949Z,90.58
2017-09-09T05:15:52.958Z,90.63
2017-09-09T05:17:47.462Z,90.82
2017-09-09T05:18:47.445Z,90.15
2017-09-09T05:20:41.934Z,90.15
2017-09-09T05:21:41.949Z,90.44
2017-09-09T05:23:36.414Z,90.44
2017-09-09T05:24:36.437Z,90.34
2017-09-09T05:26:30.902Z,90.24
2017-09-09T05:27:30.934Z,90.53
2017-09-09T05:29:24.422Z,90.53
2017-09-09T05:30:24.422Z,90.44
2017-09-09T05:32:18.886Z,90.53
2017-09-09T05:33:18.918Z,91.01
2017-09-09T05:35:13.390Z,90.24
2017-09-09T05:36:13.407Z,90.34
2017-09-09T05:38:07.854Z,90.34
2017-09-09T05:39:07.897Z,90.91
2017-09-09T05:41:02.391Z,90.44
2017-09-09T05:42:02.407Z,90.24
2017-09-09T05:43:55.871Z,90.24
2017-09-09T05:44:55.903Z,90.20
2017-09-09T05:46:50.439Z,90.44
2017-09-09T05:47:50.392Z,90.05
2017-09-09T05:49:44.839Z,90.44
2017-09-09T05:50:44.891Z,90.34
2017-09-09T05:52:39.343Z,90.34
2017-09-09T05:53:39.375Z,90.44
2017-09-09T05:55:33.823Z,90.34
2017-09-09T05:56:33.863Z,90.39
2017-09-09T05:58:28.327Z,89.95
2017-09-09T05:59:28.361Z,90.91
2017-09-09T06:01:22.800Z,90.82
2017-09-09T06:02:22.847Z,90.53
2017-09-09T06:04:17.312Z,90.63
2017-09-09T06:05:17.376Z,90.82
2017-09-09T06:07:11.775Z,90.24
2017-09-09T06:08:12.193Z,90.82
2017-09-09T06:10:06.296Z,90.63
2017-09-09T06:11:06.366Z,90.34
2017-09-09T06:13:00.769Z,90.44
2017-09-09T06:14:00.849Z,90.24
2017-09-09T06:15:55.288Z,90.82
2017-09-09T06:16:55.320Z,90.53
2017-09-09T06:18:49.912Z,90.63
2017-09-09T06:19:49.992Z,90.44
2017-09-09T06:21:45.184Z,90.24
2017-09-09T06:22:45.201Z,90.44
2017-09-09T06:24:39.649Z,90.63
2017-09-09T06:25:39.688Z,90.24
2017-09-09T06:27:34.176Z,90.44
2017-09-09T06:28:34.184Z,90.44
2017-09-09T06:30:29.224Z,90.72
2017-09-09T06:31:28.680Z,90.72
2017-09-09T06:33:23.148Z,90.72
2017-09-09T06:34:23.164Z,90.53
2017-09-09T06:36:17.648Z,90.72
2017-09-09T06:37:17.679Z,91.01
2017-09-09T06:39:12.152Z,90.82
2017-09-09T06:40:12.169Z,90.82
2017-09-09T06:42:05.640Z,90.91
2017-09-09T06:43:05.665Z,91.11
2017-09-09T06:45:00.113Z,90.72
2017-09-09T06:46:00.153Z,90.91
2017-09-09T06:47:54.634Z,91.30
2017-09-09T06:48:54.984Z,91.20
2017-09-09T06:50:49.169Z,91.30
2017-09-09T06:51:49.145Z,91.01
2017-09-09T06:53:43.745Z,91.39
2017-09-09T06:54:43.633Z,91.01
2017-09-09T06:56:38.210Z,90.91
2017-09-09T06:57:38.124Z,91.01
2017-09-09T06:59:31.609Z,91.30
2017-09-09T07:00:31.625Z,90.91
2017-09-09T07:02:26.106Z,91.20
2017-09-09T07:03:26.113Z,91.15
2017-09-09T07:05:19.593Z,90.91
2017-09-09T07:06:19.617Z,90.72
2017-09-09T07:08:14.105Z,91.11
2017-09-09T07:09:14.089Z,91.11
2017-09-09T07:11:08.586Z,90.96
2017-09-09T07:12:07.593Z,91.72
2017-09-09T07:14:02.058Z,91.34
2017-09-09T07:15:02.089Z,90.96
2017-09-09T07:16:56.474Z,91.05
2017-09-09T07:17:56.490Z,90.77
2017-09-09T07:19:50.922Z,90.48
2017-09-09T07:20:50.947Z,90.96
2017-09-09T07:22:44.530Z,90.39
2017-09-09T07:23:44.506Z,90.86
2017-09-09T07:25:38.010Z,90.39
2017-09-09T07:26:38.002Z,91.25
2017-09-09T07:28:31.475Z,90.86
2017-09-09T07:29:31.490Z,91.15
2017-09-09T07:31:25.987Z,91.05
2017-09-09T07:32:26.018Z,91.15
2017-09-09T07:34:20.499Z,90.58
2017-09-09T07:35:20.507Z,90.53
2017-09-09T07:37:13.970Z,90.62
2017-09-09T07:38:14.003Z,90.14
2017-09-09T07:40:07.027Z,90.33
2017-09-09T07:41:07.043Z,91.10
2017-09-09T07:43:01.523Z,89.76
2017-09-09T07:44:01.547Z,89.95
2017-09-09T07:45:56.051Z,89.86
2017-09-09T07:46:56.155Z,89.95
2017-09-09T07:48:50.531Z,89.86
2017-09-09T07:49:50.579Z,89.57
2017-09-09T07:51:45.044Z,89.37
2017-09-09T07:52:45.059Z,89.37
2017-09-09T07:54:39.557Z,89.47
2017-09-09T07:55:39.554Z,89.95
2017-09-09T07:57:34.018Z,89.37
2017-09-09T07:58:34.082Z,89.28
2017-09-09T08:00:28.538Z,89.28
2017-09-09T08:01:28.594Z,89.37
2017-09-09T08:03:23.050Z,88.90
2017-09-09T08:04:23.066Z,89.37
2017-09-09T08:06:17.522Z,89.18
2017-09-09T08:07:17.610Z,88.99
2017-09-09T08:09:12.066Z,88.51
2017-09-09T08:10:12.082Z,88.23
2017-09-09T08:12:06.548Z,89.28
2017-09-09T08:13:06.611Z,89.23
2017-09-09T08:15:00.091Z,88.46
2017-09-09T08:16:00.131Z,88.42
2017-09-09T08:17:55.259Z,88.61
2017-09-09T08:19:03.483Z,87.84
2017-09-09T08:20:50.691Z,88.42
2017-09-09T08:21:50.659Z,88.42
2017-09-09T08:23:44.747Z,88.80
2017-09-09T08:24:44.787Z,88.32
2017-09-09T08:26:39.283Z,88.32
2017-09-09T08:27:39.371Z,88.99
2017-09-09T08:29:33.755Z,88.80
2017-09-09T08:30:33.762Z,88.13
2017-09-09T08:32:28.209Z,89.47
2017-09-09T08:33:28.258Z,89.28
2017-09-09T08:35:21.241Z,88.32
2017-09-09T08:36:21.249Z,88.42
2017-09-09T08:38:15.745Z,89.18
2017-09-09T08:39:15.770Z,88.80
2017-09-09T08:41:09.266Z,88.99
2017-09-09T08:42:17.906Z,88.80
2017-09-09T08:44:02.698Z,88.27
2017-09-09T08:45:02.754Z,88.27
2017-09-09T08:46:56.290Z,88.37
2017-09-09T08:47:56.306Z,88.56
2017-09-09T08:49:50.810Z,87.60
2017-09-09T08:50:50.817Z,87.88
2017-09-09T08:52:46.298Z,87.79
2017-09-09T08:53:46.290Z,87.50
2017-09-09T08:55:40.794Z,88.51
2017-09-09T08:56:40.826Z,87.45
2017-09-09T08:58:35.118Z,86.21
2017-09-09T08:59:35.139Z,86.58
2017-09-09T09:01:29.642Z,85.15
2017-09-09T09:02:29.658Z,85.44
2017-09-09T09:04:23.646Z,85.88
2017-09-09T09:05:23.458Z,85.97
2017-09-09T09:07:17.947Z,86.11
2017-09-09T09:08:17.939Z,85.34
2017-09-09T09:10:11.466Z,85.77
2017-09-09T09:11:11.507Z,86.05
2017-09-09T09:13:07.515Z,86.00
2017-09-09T09:14:07.515Z,84.75
2017-09-09T09:16:01.108Z,84.31
2017-09-09T09:17:01.149Z,83.84
2017-09-09T09:18:55.693Z,86.18
2017-09-09T09:19:55.683Z,85.36
2017-09-09T09:21:50.126Z,82.96
2017-09-09T09:22:50.155Z,83.53
2017-09-09T09:24:44.621Z,81.32
2017-09-09T09:25:44.653Z,81.71
2017-09-09T09:27:39.117Z,80.94
2017-09-09T09:28:39.146Z,80.65
2017-09-09T09:30:33.683Z,79.69
2017-09-09T09:31:33.738Z,79.60
2017-09-09T09:33:27.115Z,79.79
2017-09-09T09:34:27.162Z,79.53
2017-09-09T09:36:21.652Z,79.25
2017-09-09T09:37:21.655Z,79.48
2017-09-09T09:39:16.152Z,76.31
2017-09-09T09:40:17.982Z,75.34
2017-09-09T09:42:10.629Z,77.65
2017-09-09T09:43:10.677Z,77.01
2017-09-09T09:45:05.181Z,77.44
2017-09-09T09:46:05.206Z,77.06
2017-09-09T09:47:59.678Z,75.71
2017-09-09T09:48:59.726Z,75.13
2017-09-09T09:50:54.214Z,75.26
2017-09-09T09:51:54.230Z,75.36
2017-09-09T09:53:48.720Z,73.88
2017-09-09T09:54:48.798Z,73.20
2017-09-09T09:56:43.214Z,72.81
2017-09-09T09:57:43.255Z,72.01
2017-09-09T09:59:37.743Z,72.39
2017-09-09T10:00:37.766Z,72.30
2017-09-09T10:02:33.335Z,72.30
2017-09-09T10:03:33.294Z,71.62
2017-09-09T10:05:26.976Z,70.82
2017-09-09T10:06:26.799Z,71.30
2017-09-09T10:08:20.383Z,71.11
2017-09-09T10:09:19.927Z,71.69
2017-09-09T10:11:14.407Z,71.59
2017-09-09T10:12:14.443Z,72.55
2017-09-09T10:14:10.015Z,70.82
2017-09-09T10:15:09.983Z,72.20
2017-09-09T10:17:03.693Z,70.60
2017-09-09T10:18:03.528Z,71.28
2017-09-09T10:19:58.000Z,71.83
2017-09-09T10:20:58.072Z,70.51
2017-09-09T10:22:51.503Z,70.45
2017-09-09T10:23:51.632Z,68.04
2017-09-09T10:25:45.032Z,68.04
2017-09-09T10:26:45.056Z,66.72
2017-09-09T10:28:39.544Z,67.40
2017-09-09T10:29:39.568Z,65.56
2017-09-09T10:31:33.119Z,65.66
2017-09-09T10:32:34.231Z,66.17
2017-09-09T10:34:26.600Z,64.98
2017-09-09T10:35:26.655Z,65.50
2017-09-09T10:37:21.502Z,61.70
2017-09-09T10:38:21.271Z,60.22
2017-09-09T10:40:15.334Z,60.86
2017-09-09T10:41:14.742Z,61.06
2017-09-09T10:43:09.231Z,60.10
2017-09-09T10:44:09.264Z,61.70
2017-09-09T10:46:03.735Z,59.74
2017-09-09T10:47:03.769Z,59.06
2017-09-09T10:48:57.289Z,59.55
2017-09-09T10:49:57.320Z,58.75
2017-09-09T10:51:51.776Z,59.23
2017-09-09T10:52:51.833Z,59.00
2017-09-09T10:54:46.348Z,61.05
2017-09-09T10:55:46.378Z,59.09
2017-09-09T10:57:40.818Z,57.90
2017-09-09T10:58:40.914Z,58.73
2017-09-09T11:00:34.322Z,58.14
2017-09-09T11:01:34.371Z,56.34
2017-09-09T11:03:28.794Z,55.17
2017-09-09T11:04:28.834Z,53.91
2017-09-09T11:06:22.338Z,52.80
2017-09-09T11:07:22.364Z,52.87
2017-09-09T11:09:15.867Z,53.06
2017-09-09T11:10:15.906Z,53.61
2017-09-09T11:12:10.355Z,53.78
2017-09-09T11:13:10.386Z,54.65
2017-09-09T11:15:04.906Z,55.81
2017-09-09T11:16:04.907Z,55.81
2017-09-09T11:17:57.874Z,56.20
2017-09-09T11:18:57.923Z,56.39
2017-09-09T11:20:53.412Z,57.12
2017-09-09T11:21:53.435Z,59.72
2017-09-09T11:23:46.933Z,57.25
2017-09-09T11:24:46.971Z,56.04
2017-09-09T11:26:40.507Z,52.43
2017-09-09T11:27:40.499Z,50.46
2017-09-09T11:29:35.011Z,47.81
2017-09-09T11:30:35.068Z,47.01
2017-09-09T11:32:29.548Z,44.64
2017-09-09T11:33:29.604Z,44.32
2017-09-09T11:35:24.076Z,45.75
2017-09-09T11:36:24.091Z,46.41
2017-09-09T11:38:18.556Z,45.61
2017-09-09T11:39:18.603Z,45.49
2017-09-09T11:41:14.596Z,46.44
2017-09-09T11:42:14.612Z,46.12
2017-09-09T11:44:09.092Z,46.49
2017-09-09T11:45:09.124Z,46.95
2017-09-09T11:47:03.628Z,47.41
2017-09-09T11:48:03.644Z,49.24
2017-09-09T11:49:58.132Z,51.25
2017-09-09T11:50:58.148Z,51.70
2017-09-09T11:52:52.644Z,52.37
2017-09-09T11:53:52.668Z,53.51
2017-09-09T11:55:47.164Z,54.09
2017-09-09T11:56:47.173Z,54.86
2017-09-09T11:58:41.670Z,55.44
2017-09-09T11:59:41.661Z,55.92
2017-09-09T12:01:36.149Z,56.40
2017-09-09T12:02:36.188Z,56.79
2017-09-09T12:04:30.663Z,57.53
2017-09-09T12:05:30.677Z,58.11
2017-09-09T12:07:25.221Z,58.69
2017-09-09T12:08:25.185Z,58.69
2017-09-09T12:10:19.645Z,59.75
2017-09-09T12:11:19.709Z,59.65
2017-09-09T12:13:13.188Z,60.13
2017-09-09T12:14:13.677Z,61.03
2017-09-09T12:16:06.669Z,60.71
2017-09-09T12:17:06.709Z,60.71
2017-09-09T12:19:01.189Z,60.90
2017-09-09T12:20:01.230Z,60.03
2017-09-09T12:21:55.696Z,60.23
2017-09-09T12:22:55.726Z,61.25
2017-09-09T12:24:50.214Z,62.22
2017-09-09T12:25:50.287Z,62.32
2017-09-09T12:27:44.750Z,63.18
2017-09-09T12:28:44.736Z,62.90
2017-09-09T12:30:39.839Z,63.95
2017-09-09T12:31:39.334Z,62.90
2017-09-09T12:33:33.782Z,62.90
2017-09-09T12:34:34.942Z,63.38
2017-09-09T12:36:28.311Z,62.80
2017-09-09T12:37:28.695Z,64.15
2017-09-09T12:39:22.798Z,63.85
2017-09-09T12:40:22.823Z,63.82
2017-09-09T12:42:16.326Z,63.92
2017-09-09T12:43:16.318Z,63.73
2017-09-09T12:45:10.807Z,64.02
2017-09-09T12:46:10.831Z,64.37
2017-09-09T12:48:05.303Z,65.24
2017-09-09T12:49:05.335Z,65.63
2017-09-09T12:50:59.791Z,66.27
2017-09-09T12:51:59.854Z,66.10
2017-09-09T12:53:54.295Z,66.27
2017-09-09T12:54:54.319Z,66.20
2017-09-09T12:56:48.847Z,65.97
2017-09-09T12:57:48.864Z,66.49
2017-09-09T12:59:42.629Z,67.22
2017-09-09T13:00:42.725Z,67.55
2017-09-09T13:02:37.126Z,67.65
2017-09-09T13:03:37.144Z,67.74
2017-09-09T13:05:31.673Z,68.13
2017-09-09T13:06:31.651Z,67.83
2017-09-09T13:08:26.441Z,68.13
2017-09-09T13:09:26.152Z,67.93
2017-09-09T13:11:20.737Z,67.74
2017-09-09T13:12:20.712Z,68.22
2017-09-09T13:14:16.723Z,67.16
2017-09-09T13:15:16.761Z,67.35
2017-09-09T13:17:11.145Z,68.80
2017-09-09T13:18:11.194Z,68.54
2017-09-09T13:20:06.257Z,69.83
2017-09-09T13:21:05.805Z,71.54
2017-09-09T13:23:00.163Z,68.77
2017-09-09T13:24:00.185Z,67.23
2017-09-09T13:25:54.706Z,65.40
2017-09-09T13:26:54.697Z,65.50
2017-09-09T13:28:48.177Z,65.14
2017-09-09T13:29:48.193Z,64.47
2017-09-09T13:31:42.722Z,63.89
2017-09-09T13:32:42.761Z,63.09
2017-09-09T13:34:37.369Z,62.70
2017-09-09T13:35:37.265Z,62.57
2017-09-09T13:37:31.737Z,62.18
2017-09-09T13:38:31.786Z,62.60
2017-09-09T13:40:25.218Z,62.76
2017-09-09T13:41:25.266Z,63.06
2017-09-09T13:43:19.746Z,62.09
2017-09-09T13:44:19.794Z,62.76
2017-09-09T13:46:14.259Z,62.38
2017-09-09T13:47:14.282Z,62.66
2017-09-09T13:49:16.386Z,62.57
2017-09-09T13:50:08.771Z,62.57
2017-09-09T13:52:03.291Z,64.34
2017-09-09T13:53:03.298Z,64.08
2017-09-09T13:54:57.738Z,62.82
2017-09-09T13:55:57.778Z,62.95
2017-09-09T13:57:52.323Z,64.24
2017-09-09T13:58:52.314Z,62.21
2017-09-09T14:00:45.794Z,61.86
2017-09-09T14:01:45.883Z,61.57
2017-09-09T14:03:40.333Z,59.56
2017-09-09T14:04:40.379Z,59.28
2017-09-09T14:06:36.371Z,58.98
2017-09-09T14:07:36.362Z,57.92
2017-09-09T14:09:29.907Z,60.05
2017-09-09T14:10:29.939Z,59.38
2017-09-09T14:12:24.419Z,57.15
2017-09-09T14:13:24.443Z,58.50
2017-09-09T14:15:19.019Z,56.60
2017-09-09T14:16:18.972Z,56.50
2017-09-09T14:18:12.486Z,56.94
2017-09-09T14:19:12.508Z,57.26
2017-09-09T14:21:05.964Z,52.28
2017-09-09T14:22:06.012Z,52.76
2017-09-09T14:24:00.520Z,50.07
2017-09-09T14:25:00.523Z,49.41
2017-09-09T14:26:55.076Z,49.17
2017-09-09T14:27:55.110Z,46.77
2017-09-09T14:29:49.604Z,43.65
2017-09-09T14:30:49.620Z,42.74
2017-09-09T14:32:44.140Z,43.51
2017-09-09T14:33:44.173Z,43.40
2017-09-09T14:35:37.644Z,43.40
2017-09-09T14:36:37.669Z,43.37
2017-09-09T14:38:32.149Z,42.86
2017-09-09T14:39:32.180Z,42.96
2017-09-09T14:41:26.685Z,44.92
2017-09-09T14:42:26.692Z,44.54
2017-09-09T14:44:21.173Z,42.61
2017-09-09T14:45:21.204Z,44.48
2017-09-09T14:47:15.701Z,42.76
2017-09-09T14:48:15.726Z,41.49
2017-09-09T14:50:10.221Z,40.62
2017-09-09T14:51:10.245Z,41.10
2017-09-09T14:53:04.717Z,40.44
2017-09-09T14:54:04.757Z,41.05
2017-09-09T14:55:59.245Z,38.32
2017-09-09T14:56:59.270Z,38.24
2017-09-09T14:58:53.733Z,36.10
2017-09-09T14:59:53.782Z,35.60
2017-09-09T15:01:48.311Z,35.10
2017-09-09T15:02:48.329Z,35.19
2017-09-09T15:04:41.837Z,35.37
2017-09-09T15:05:41.861Z,35.17
2017-09-09T15:07:36.349Z,35.45
2017-09-09T15:08:36.377Z,36.21
2017-09-09T15:10:30.846Z,36.99
2017-09-09T15:11:30.886Z,38.06
2017-09-09T15:13:24.438Z,38.19
2017-09-09T15:14:24.454Z,37.80
2017-09-09T15:16:18.924Z,37.43
2017-09-09T15:17:18.974Z,36.55
2017-09-09T15:19:13.462Z,37.62
2017-09-09T15:20:13.526Z,36.57
2017-09-09T15:22:07.006Z,35.84
2017-09-09T15:23:07.006Z,36.04
2017-09-09T15:25:01.503Z,36.61
2017-09-09T15:26:01.526Z,36.91
2017-09-09T15:27:56.030Z,36.99
2017-09-09T15:28:56.042Z,37.74
2017-09-09T15:30:50.503Z,37.94
2017-09-09T15:31:50.544Z,38.02
2017-09-09T15:33:45.055Z,38.50
2017-09-09T15:34:45.100Z,38.70
2017-09-09T15:36:39.560Z,38.78
2017-09-09T15:37:39.816Z,39.74
2017-09-09T15:39:34.080Z,40.01
2017-09-09T15:40:34.104Z,40.77
2017-09-09T15:42:28.680Z,42.22
2017-09-09T15:43:28.688Z,42.10
2017-09-09T15:45:22.359Z,42.88
2017-09-09T15:46:22.217Z,43.75
2017-09-09T15:48:16.704Z,43.63
2017-09-09T15:49:16.727Z,43.92
2017-09-09T15:51:10.175Z,44.21
2017-09-09T15:52:10.548Z,44.50
2017-09-09T15:54:04.753Z,44.38
2017-09-09T15:55:04.735Z,44.48
2017-09-09T15:56:59.208Z,45.42
2017-09-09T15:57:59.360Z,44.94
2017-09-09T15:59:53.728Z,45.23
2017-09-09T16:00:53.736Z,46.08
2017-09-09T16:02:48.392Z,47.91
2017-09-09T16:03:48.264Z,49.15
2017-09-09T16:05:42.744Z,50.38
2017-09-09T16:06:42.768Z,49.99
2017-09-09T16:08:37.649Z,49.99
2017-09-09T16:09:37.320Z,49.80
2017-09-09T16:11:31.756Z,50.67
2017-09-09T16:12:31.807Z,50.86
2017-09-09T16:14:25.288Z,50.47
2017-09-09T16:15:25.340Z,51.32
2017-09-09T16:17:19.776Z,51.70
2017-09-09T16:18:19.825Z,51.44
2017-09-09T16:20:14.560Z,52.09
2017-09-09T16:21:14.328Z,51.99
2017-09-09T16:23:09.857Z,51.92
2017-09-09T16:24:10.025Z,51.63
2017-09-09T16:26:04.288Z,51.92
2017-09-09T16:27:04.665Z,50.74
2017-09-09T16:28:58.825Z,49.87
2017-09-09T16:29:58.834Z,50.16
2017-09-09T16:31:54.056Z,50.26
2017-09-09T16:32:53.337Z,50.16
2017-09-09T16:34:47.816Z,50.26
2017-09-09T16:35:47.832Z,50.26
2017-09-09T16:37:42.296Z,50.06
2017-09-09T16:38:42.344Z,50.74
2017-09-09T16:40:36.838Z,50.06
2017-09-09T16:41:36.840Z,49.48
2017-09-09T16:43:31.840Z,49.77
2017-09-09T16:44:30.936Z,50.64
2017-09-09T16:46:25.584Z,50.64
2017-09-09T16:47:32.803Z,50.74
2017-09-09T16:49:19.617Z,50.84
2017-09-09T16:50:28.281Z,51.41
2017-09-09T16:52:14.220Z,51.22
2017-09-09T16:53:14.033Z,50.45
2017-09-09T16:55:08.561Z,51.22
2017-09-09T16:56:09.098Z,50.23
2017-09-09T16:58:03.929Z,51.39
2017-09-09T16:59:03.905Z,50.71
2017-09-09T17:00:58.369Z,50.62
2017-09-09T17:01:58.425Z,50.23
2017-09-09T17:03:51.961Z,51.17
2017-09-09T17:04:51.961Z,51.17
2017-09-09T17:06:46.522Z,51.36
2017-09-09T17:07:46.546Z,51.84
2017-09-09T17:09:40.041Z,51.56
2017-09-09T17:10:39.938Z,52.04
2017-09-09T17:12:35.945Z,52.49
2017-09-09T17:13:35.954Z,52.97
2017-09-09T17:15:30.471Z,53.17
2017-09-09T17:16:30.471Z,53.55
2017-09-09T17:18:24.910Z,53.74
2017-09-09T17:19:24.950Z,54.61
2017-09-09T17:21:19.391Z,54.42
2017-09-09T17:22:19.431Z,54.90
2017-09-09T17:24:13.207Z,54.87
2017-09-09T17:25:12.919Z,54.68
2017-09-09T17:27:07.415Z,54.68
2017-09-09T17:28:07.455Z,54.39
2017-09-09T17:30:00.976Z,55.35
2017-09-09T17:31:00.968Z,55.74
2017-09-09T17:32:55.408Z,54.30
2017-09-09T17:33:55.480Z,54.49
2017-09-09T17:35:51.424Z,54.65
2017-09-09T17:36:51.452Z,54.85
2017-09-09T17:38:45.903Z,55.33
2017-09-09T17:39:46.001Z,55.52
2017-09-09T17:41:39.448Z,56.29
2017-09-09T17:42:39.448Z,56.10
2017-09-09T17:44:32.968Z,56.77
2017-09-09T17:45:32.952Z,56.87
2017-09-09T17:47:27.440Z,56.74
2017-09-09T17:48:27.440Z,56.84
2017-09-09T17:50:21.955Z,56.45
2017-09-09T17:51:22.017Z,56.74
2017-09-09T17:53:16.471Z,57.32
2017-09-09T17:54:16.495Z,57.51
2017-09-09T17:56:10.940Z,57.58
2017-09-09T17:57:10.988Z,57.87
2017-09-09T17:59:05.620Z,57.87
2017-09-09T18:00:05.492Z,58.64
2017-09-09T18:01:59.997Z,58.83
2017-09-09T18:02:59.980Z,58.64
2017-09-09T18:04:54.623Z,59.02
2017-09-09T18:05:54.479Z,58.45
2017-09-09T18:07:47.649Z,58.64
2017-09-09T18:08:47.673Z,58.83
2017-09-09T18:10:41.177Z,59.47
2017-09-09T18:11:41.200Z,59.76
2017-09-09T18:13:35.625Z,60.24
2017-09-09T18:14:35.664Z,60.14
2017-09-09T18:16:30.177Z,60.82
2017-09-09T18:17:30.176Z,60.82
2017-09-09T18:19:24.665Z,60.72
2017-09-09T18:20:24.665Z,61.01
2017-09-09T18:22:19.185Z,60.69
2017-09-09T18:23:19.184Z,60.72
2017-09-09T18:25:13.592Z,61.55
2017-09-09T18:26:13.416Z,61.27
2017-09-09T18:28:06.884Z,61.55
2017-09-09T18:29:06.857Z,61.55
2017-09-09T18:31:00.392Z,62.32
2017-09-09T18:32:00.391Z,62.23
2017-09-09T18:33:54.953Z,61.84
2017-09-09T18:34:54.935Z,62.42
2017-09-09T18:36:50.215Z,63.57
2017-09-09T18:37:49.623Z,63.16
2017-09-09T18:39:44.103Z,64.02
2017-09-09T18:40:44.847Z,63.64
2017-09-09T18:42:38.888Z,64.22